KYNG/YNG METAR and TAF weather

Enter ICAO airport designator
Station Type Date Time Source
KYNG METAR 2020/07/06 22:51 UTC NOAA

KYNG 062251Z 30004KT 10SM FEW060 SCT250 32/17 A3002 RMK AO2 SLP155 T03170167


Station Type Date Time Source
KYNG Decoded METAR 2020/07/06 22:51 UTC NOAA

YOUNGSTOWN-WARREN REG AIRPRT, OH, United States (KYNG) 41-15N 080-40W 360M
Jul 06, 2020 - 06:51 PM EDT / 2020.07.06 2251 UTC
Wind: from the WNW (300 degrees) at 5 MPH (4 KT):0
Visibility: 10 mile(s):0
Sky conditions: partly cloudy
Temperature: 89.1 F (31.7 C)
Dew Point: 62.1 F (16.7 C)
Relative Humidity: 40%
Pressure (altimeter): 30.02 in. Hg (1016 hPa)
ob: KYNG 062251Z 30004KT 10SM FEW060 SCT250 32/17 A3002 RMK AO2 SLP155 T03170167
cycle: 23

Station Type Date Time Source
KYNG TAF 2020/07/06 18:27 UTC NOAA

TAF KYNG 061720Z 0618/0718 VRB05KT P6SM FEW250

Example: see airport list